Terminal Aerodrome Forecast
Issued by NWS

Home | Current Version | Previous Version | Graphics & Text | Print | Product List | Glossary On
Versions: 1 2 3 4 5 6 7 8 9 10 11 12 13
643
FTUS43 KICT 191123 AAA
TAFHUT
TAF AMD
KHUT 191123Z 1911/2006 18009KT P6SM SCT200
     FM191700 19015G21KT P6SM FEW060 FEW250
     FM200100 18010KT P6SM SKC=

USA.gov is the U.S. government's official web portal to all federal, state and local government web resources and services.